sensor_id;sensor_type;location;lat;lon;timestamp;temperature;humidity
20839;DHT22;10580;51.092;6.828;2023-12-29T00:00:02;11.00;99.90
20839;DHT22;10580;51.092;6.828;2023-12-29T00:02:28;10.90;99.90
20839;DHT22;10580;51.092;6.828;2023-12-29T00:04:53;10.90;99.90
20839;DHT22;10580;51.092;6.828;2023-12-29T00:07:19;10.90;71.50
20839;DHT22;10580;51.092;6.828;2023-12-29T00:09:44;10.90;51.90
20839;DHT22;10580;51.092;6.828;2023-12-29T00:12:10;10.90;31.40
20839;DHT22;10580;51.092;6.828;2023-12-29T00:14:39;10.90;34.90
20839;DHT22;10580;51.092;6.828;2023-12-29T00:17:05;10.90;99.60
20839;DHT22;10580;51.092;6.828;2023-12-29T00:19:31;11.00;99.90
20839;DHT22;10580;51.092;6.828;2023-12-29T00:21:56;10.90;80.00
20839;DHT22;10580;51.092;6.828;2023-12-29T00:24:22;10.90;23.70
20839;DHT22;10580;51.092;6.828;2023-12-29T00:26:47;10.90;36.60
20839;DHT22;10580;51.092;6.828;2023-12-29T00:29:14;10.90;38.30
20839;DHT22;10580;51.092;6.828;2023-12-29T00:31:41;10.90;41.50
20839;DHT22;10580;51.092;6.828;2023-12-29T00:34:07;10.80;39.40
20839;DHT22;10580;51.092;6.828;2023-12-29T00:36:32;10.90;9.00
20839;DHT22;10580;51.092;6.828;2023-12-29T00:38:58;10.90;89.10
20839;DHT22;10580;51.092;6.828;2023-12-29T00:41:23;10.90;92.10
20839;DHT22;10580;51.092;6.828;2023-12-29T00:43:49;10.90;63.30
20839;DHT22;10580;51.092;6.828;2023-12-29T00:46:15;10.90;61.00
20839;DHT22;10580;51.092;6.828;2023-12-29T00:48:43;10.90;9.90
20839;DHT22;10580;51.092;6.828;2023-12-29T00:51:09;10.90;48.80
20839;DHT22;10580;51.092;6.828;2023-12-29T00:53:35;10.90;59.20
20839;DHT22;10580;51.092;6.828;2023-12-29T00:56:01;10.90;94.80
20839;DHT22;10580;51.092;6.828;2023-12-29T00:58:27;10.90;99.90
20839;DHT22;10580;51.092;6.828;2023-12-29T01:00:52;10.90;98.80
20839;DHT22;10580;51.092;6.828;2023-12-29T01:03:18;10.90;37.90
20839;DHT22;10580;51.092;6.828;2023-12-29T01:05:43;10.90;27.10
20839;DHT22;10580;51.092;6.828;2023-12-29T01:08:09;10.90;67.80
20839;DHT22;10580;51.092;6.828;2023-12-29T01:10:34;10.90;99.90
20839;DHT22;10580;51.092;6.828;2023-12-29T01:13:00;10.90;99.90
20839;DHT22;10580;51.092;6.828;2023-12-29T01:15:25;10.90;99.90
20839;DHT22;10580;51.092;6.828;2023-12-29T01:17:51;10.90;99.90
20839;DHT22;10580;51.092;6.828;2023-12-29T01:20:16;10.90;16.60
20839;DHT22;10580;51.092;6.828;2023-12-29T01:22:42;10.90;81.20
20839;DHT22;10580;51.092;6.828;2023-12-29T01:25:08;10.80;99.90
20839;DHT22;10580;51.092;6.828;2023-12-29T01:27:33;10.90;99.90
20839;DHT22;10580;51.092;6.828;2023-12-29T01:29:59;10.80;99.90
20839;DHT22;10580;51.092;6.828;2023-12-29T01:32:25;10.80;99.90
20839;DHT22;10580;51.092;6.828;2023-12-29T01:34:52;10.80;99.90
20839;DHT22;10580;51.092;6.828;2023-12-29T01:37:17;10.80;99.90
20839;DHT22;10580;51.092;6.828;2023-12-29T01:39:43;10.80;99.90
20839;DHT22;10580;51.092;6.828;2023-12-29T01:42:08;10.80;99.90
20839;DHT22;10580;51.092;6.828;2023-12-29T01:44:36;10.80;99.90
20839;DHT22;10580;51.092;6.828;2023-12-29T01:47:03;10.80;99.90
20839;DHT22;10580;51.092;6.828;2023-12-29T01:49:31;10.80;99.90
20839;DHT22;10580;51.092;6.828;2023-12-29T01:51:58;10.80;1.00
20839;DHT22;10580;51.092;6.828;2023-12-29T01:54:28;10.80;1.00
20839;DHT22;10580;51.092;6.828;2023-12-29T01:56:57;10.80;1.00
20839;DHT22;10580;51.092;6.828;2023-12-29T01:59:25;10.80;1.00
20839;DHT22;10580;51.092;6.828;2023-12-29T02:01:53;10.80;1.00
20839;DHT22;10580;51.092;6.828;2023-12-29T02:04:19;10.80;1.00
20839;DHT22;10580;51.092;6.828;2023-12-29T02:06:45;10.70;1.00
20839;DHT22;10580;51.092;6.828;2023-12-29T02:09:11;10.70;1.00
20839;DHT22;10580;51.092;6.828;2023-12-29T02:11:38;10.70;1.00
20839;DHT22;10580;51.092;6.828;2023-12-29T02:14:04;10.70;1.00
20839;DHT22;10580;51.092;6.828;2023-12-29T02:19:38;10.70;1.00
20839;DHT22;10580;51.092;6.828;2023-12-29T02:22:05;10.70;99.90
20839;DHT22;10580;51.092;6.828;2023-12-29T02:24:31;10.70;99.90
20839;DHT22;10580;51.092;6.828;2023-12-29T02:27:07;10.70;1.00
20839;DHT22;10580;51.092;6.828;2023-12-29T02:29:34;10.70;99.90
20839;DHT22;10580;51.092;6.828;2023-12-29T02:32:00;10.70;99.90
20839;DHT22;10580;51.092;6.828;2023-12-29T02:34:29;10.70;99.90
20839;DHT22;10580;51.092;6.828;2023-12-29T02:36:56;10.60;31.80
20839;DHT22;10580;51.092;6.828;2023-12-29T02:39:23;10.60;1.00
20839;DHT22;10580;51.092;6.828;2023-12-29T02:41:48;10.60;1.00
20839;DHT22;10580;51.092;6.828;2023-12-29T02:44:14;10.60;1.00
20839;DHT22;10580;51.092;6.828;2023-12-29T02:46:39;10.50;99.90
20839;DHT22;10580;51.092;6.828;2023-12-29T02:49:05;10.50;1.00
20839;DHT22;10580;51.092;6.828;2023-12-29T02:51:30;10.50;1.00
20839;DHT22;10580;51.092;6.828;2023-12-29T02:53:56;10.50;1.00
20839;DHT22;10580;51.092;6.828;2023-12-29T02:56:22;10.40;1.00
20839;DHT22;10580;51.092;6.828;2023-12-29T02:58:47;10.40;1.00
20839;DHT22;10580;51.092;6.828;2023-12-29T03:01:13;10.40;1.00
20839;DHT22;10580;51.092;6.828;2023-12-29T03:03:39;10.50;1.00
20839;DHT22;10580;51.092;6.828;2023-12-29T03:06:05;10.40;1.00
20839;DHT22;10580;51.092;6.828;2023-12-29T03:08:31;10.40;39.30
20839;DHT22;10580;51.092;6.828;2023-12-29T03:10:58;10.40;97.80
20839;DHT22;10580;51.092;6.828;2023-12-29T03:13:24;10.40;99.90
20839;DHT22;10580;51.092;6.828;2023-12-29T03:15:49;10.40;99.90
20839;DHT22;10580;51.092;6.828;2023-12-29T03:18:15;10.50;99.90
20839;DHT22;10580;51.092;6.828;2023-12-29T03:20:41;10.40;99.90
20839;DHT22;10580;51.092;6.828;2023-12-29T03:23:06;10.40;99.90
20839;DHT22;10580;51.092;6.828;2023-12-29T03:25:32;10.50;99.90
20839;DHT22;10580;51.092;6.828;2023-12-29T03:27:57;10.60;61.70
20839;DHT22;10580;51.092;6.828;2023-12-29T03:30:24;10.60;99.90
20839;DHT22;10580;51.092;6.828;2023-12-29T03:32:49;10.60;99.90
20839;DHT22;10580;51.092;6.828;2023-12-29T03:35:15;10.60;99.90
20839;DHT22;10580;51.092;6.828;2023-12-29T03:37:41;10.60;99.90
20839;DHT22;10580;51.092;6.828;2023-12-29T03:40:08;10.50;99.90
20839;DHT22;10580;51.092;6.828;2023-12-29T03:42:33;10.50;99.90
20839;DHT22;10580;51.092;6.828;2023-12-29T03:44:59;10.60;2.90
20839;DHT22;10580;51.092;6.828;2023-12-29T03:47:25;10.60;31.30
20839;DHT22;10580;51.092;6.828;2023-12-29T03:49:50;10.60;35.40
20839;DHT22;10580;51.092;6.828;2023-12-29T03:52:16;10.60;37.80
20839;DHT22;10580;51.092;6.828;2023-12-29T03:54:41;10.60;1.00
20839;DHT22;10580;51.092;6.828;2023-12-29T03:57:07;10.60;17.80
20839;DHT22;10580;51.092;6.828;2023-12-29T03:59:35;10.60;75.90
20839;DHT22;10580;51.092;6.828;2023-12-29T04:02:01;10.50;96.80
20839;DHT22;10580;51.092;6.828;2023-12-29T04:04:26;10.50;99.90
20839;DHT22;10580;51.092;6.828;2023-12-29T04:06:52;10.50;99.90
20839;DHT22;10580;51.092;6.828;2023-12-29T04:09:18;10.50;1.00
20839;DHT22;10580;51.092;6.828;2023-12-29T04:11:44;10.50;61.20
20839;DHT22;10580;51.092;6.828;2023-12-29T04:14:09;10.50;26.60
20839;DHT22;10580;51.092;6.828;2023-12-29T04:16:38;10.50;84.40
20839;DHT22;10580;51.092;6.828;2023-12-29T04:19:04;10.50;1.00
20839;DHT22;10580;51.092;6.828;2023-12-29T04:21:29;10.60;1.00
20839;DHT22;10580;51.092;6.828;2023-12-29T04:23:55;10.50;19.40
20839;DHT22;10580;51.092;6.828;2023-12-29T04:26:20;10.60;73.70
20839;DHT22;10580;51.092;6.828;2023-12-29T04:28:46;10.60;1.00
20839;DHT22;10580;51.092;6.828;2023-12-29T04:31:11;10.60;1.00
20839;DHT22;10580;51.092;6.828;2023-12-29T04:33:37;10.60;1.00
20839;DHT22;10580;51.092;6.828;2023-12-29T04:36:02;10.70;1.00
20839;DHT22;10580;51.092;6.828;2023-12-29T04:38:28;10.70;1.00
20839;DHT22;10580;51.092;6.828;2023-12-29T04:40:54;10.70;1.00
20839;DHT22;10580;51.092;6.828;2023-12-29T04:43:20;10.70;1.00
20839;DHT22;10580;51.092;6.828;2023-12-29T04:45:45;10.60;1.00
20839;DHT22;10580;51.092;6.828;2023-12-29T04:48:11;10.60;1.00
20839;DHT22;10580;51.092;6.828;2023-12-29T04:50:37;10.60;73.30
20839;DHT22;10580;51.092;6.828;2023-12-29T04:53:03;10.60;26.30
20839;DHT22;10580;51.092;6.828;2023-12-29T04:55:28;10.60;90.60
20839;DHT22;10580;51.092;6.828;2023-12-29T04:57:54;10.50;88.00
20839;DHT22;10580;51.092;6.828;2023-12-29T05:00:19;10.50;98.70
20839;DHT22;10580;51.092;6.828;2023-12-29T05:02:45;10.50;99.90
20839;DHT22;10580;51.092;6.828;2023-12-29T05:05:11;10.50;99.90
20839;DHT22;10580;51.092;6.828;2023-12-29T05:07:36;10.50;99.90
20839;DHT22;10580;51.092;6.828;2023-12-29T05:10:02;10.50;99.90
20839;DHT22;10580;51.092;6.828;2023-12-29T05:12:28;10.50;52.40
20839;DHT22;10580;51.092;6.828;2023-12-29T05:14:53;10.50;78.80
20839;DHT22;10580;51.092;6.828;2023-12-29T05:17:19;10.50;92.30
20839;DHT22;10580;51.092;6.828;2023-12-29T05:19:45;10.50;99.90
20839;DHT22;10580;51.092;6.828;2023-12-29T05:22:10;10.40;99.90
20839;DHT22;10580;51.092;6.828;2023-12-29T05:24:39;10.40;99.90
20839;DHT22;10580;51.092;6.828;2023-12-29T05:27:05;10.40;99.90
20839;DHT22;10580;51.092;6.828;2023-12-29T05:29:30;10.40;99.90
20839;DHT22;10580;51.092;6.828;2023-12-29T05:31:56;10.30;99.90
20839;DHT22;10580;51.092;6.828;2023-12-29T05:34:21;10.40;99.90
20839;DHT22;10580;51.092;6.828;2023-12-29T05:36:47;10.40;99.90
20839;DHT22;10580;51.092;6.828;2023-12-29T05:39:13;10.40;99.90
20839;DHT22;10580;51.092;6.828;2023-12-29T05:41:38;10.40;99.90
20839;DHT22;10580;51.092;6.828;2023-12-29T05:44:04;10.30;72.20
20839;DHT22;10580;51.092;6.828;2023-12-29T05:46:29;10.30;1.00
20839;DHT22;10580;51.092;6.828;2023-12-29T05:48:55;10.30;12.70
20839;DHT22;10580;51.092;6.828;2023-12-29T05:51:21;10.30;99.90
20839;DHT22;10580;51.092;6.828;2023-12-29T05:53:47;10.20;99.90
20839;DHT22;10580;51.092;6.828;2023-12-29T05:56:13;10.20;99.90
20839;DHT22;10580;51.092;6.828;2023-12-29T05:58:43;10.20;1.00
20839;DHT22;10580;51.092;6.828;2023-12-29T06:01:09;10.20;1.00
20839;DHT22;10580;51.092;6.828;2023-12-29T06:03:34;10.20;1.00
20839;DHT22;10580;51.092;6.828;2023-12-29T06:06:00;10.10;68.90
20839;DHT22;10580;51.092;6.828;2023-12-29T06:08:26;10.10;99.90
20839;DHT22;10580;51.092;6.828;2023-12-29T06:10:51;10.10;99.90
20839;DHT22;10580;51.092;6.828;2023-12-29T06:13:17;10.10;99.90
20839;DHT22;10580;51.092;6.828;2023-12-29T06:15:42;10.10;99.90
20839;DHT22;10580;51.092;6.828;2023-12-29T06:18:08;10.10;99.90
20839;DHT22;10580;51.092;6.828;2023-12-29T06:20:34;10.10;99.90
20839;DHT22;10580;51.092;6.828;2023-12-29T06:22:59;10.10;99.90
20839;DHT22;10580;51.092;6.828;2023-12-29T06:25:25;10.10;99.90
20839;DHT22;10580;51.092;6.828;2023-12-29T06:27:50;10.10;99.90
20839;DHT22;10580;51.092;6.828;2023-12-29T06:30:16;10.10;99.90
20839;DHT22;10580;51.092;6.828;2023-12-29T06:32:42;10.10;99.90
20839;DHT22;10580;51.092;6.828;2023-12-29T06:35:08;10.10;99.90
20839;DHT22;10580;51.092;6.828;2023-12-29T06:37:36;10.10;99.90
20839;DHT22;10580;51.092;6.828;2023-12-29T06:40:03;10.10;99.90
20839;DHT22;10580;51.092;6.828;2023-12-29T06:42:29;10.10;99.90
20839;DHT22;10580;51.092;6.828;2023-12-29T06:44:54;10.20;99.90
20839;DHT22;10580;51.092;6.828;2023-12-29T06:47:20;10.20;99.90
20839;DHT22;10580;51.092;6.828;2023-12-29T06:49:45;10.20;99.90
20839;DHT22;10580;51.092;6.828;2023-12-29T06:52:11;10.20;99.90
20839;DHT22;10580;51.092;6.828;2023-12-29T06:54:37;10.20;99.90
20839;DHT22;10580;51.092;6.828;2023-12-29T06:57:02;10.20;99.90
20839;DHT22;10580;51.092;6.828;2023-12-29T06:59:28;10.20;99.90
20839;DHT22;10580;51.092;6.828;2023-12-29T07:01:53;10.20;1.00
20839;DHT22;10580;51.092;6.828;2023-12-29T07:04:19;10.20;1.00
20839;DHT22;10580;51.092;6.828;2023-12-29T07:06:44;10.20;1.00
20839;DHT22;10580;51.092;6.828;2023-12-29T07:09:10;10.30;1.00
20839;DHT22;10580;51.092;6.828;2023-12-29T07:11:36;10.30;1.00
20839;DHT22;10580;51.092;6.828;2023-12-29T07:14:02;10.40;1.00
20839;DHT22;10580;51.092;6.828;2023-12-29T07:16:28;10.40;1.00
20839;DHT22;10580;51.092;6.828;2023-12-29T07:18:54;10.40;1.00
20839;DHT22;10580;51.092;6.828;2023-12-29T07:21:20;10.40;99.90
20839;DHT22;10580;51.092;6.828;2023-12-29T07:23:45;10.40;99.90
20839;DHT22;10580;51.092;6.828;2023-12-29T07:26:11;10.40;99.90
20839;DHT22;10580;51.092;6.828;2023-12-29T07:28:37;10.40;99.90
20839;DHT22;10580;51.092;6.828;2023-12-29T07:31:02;10.40;99.90
20839;DHT22;10580;51.092;6.828;2023-12-29T07:33:28;10.40;1.00
20839;DHT22;10580;51.092;6.828;2023-12-29T07:35:54;10.40;1.00
20839;DHT22;10580;51.092;6.828;2023-12-29T07:38:19;10.40;1.00
20839;DHT22;10580;51.092;6.828;2023-12-29T07:40:45;10.40;1.00
20839;DHT22;10580;51.092;6.828;2023-12-29T07:43:13;10.40;1.00
20839;DHT22;10580;51.092;6.828;2023-12-29T07:45:38;10.40;1.00
20839;DHT22;10580;51.092;6.828;2023-12-29T07:48:05;10.40;1.00
20839;DHT22;10580;51.092;6.828;2023-12-29T07:50:31;10.40;1.00
20839;DHT22;10580;51.092;6.828;2023-12-29T07:52:56;10.40;1.00
20839;DHT22;10580;51.092;6.828;2023-12-29T07:55:22;10.40;1.00
20839;DHT22;10580;51.092;6.828;2023-12-29T07:57:47;10.40;99.90
20839;DHT22;10580;51.092;6.828;2023-12-29T08:00:17;10.30;1.00
20839;DHT22;10580;51.092;6.828;2023-12-29T08:02:42;10.20;60.60
20839;DHT22;10580;51.092;6.828;2023-12-29T08:05:08;10.20;99.90
20839;DHT22;10580;51.092;6.828;2023-12-29T08:07:35;10.10;99.90
20839;DHT22;10580;51.092;6.828;2023-12-29T08:10:01;10.00;1.00
20839;DHT22;10580;51.092;6.828;2023-12-29T08:12:29;10.00;1.00
20839;DHT22;10580;51.092;6.828;2023-12-29T08:14:55;9.90;1.00
20839;DHT22;10580;51.092;6.828;2023-12-29T08:17:22;9.90;1.00
20839;DHT22;10580;51.092;6.828;2023-12-29T08:19:47;9.80;99.90
20839;DHT22;10580;51.092;6.828;2023-12-29T08:22:13;9.80;99.90
20839;DHT22;10580;51.092;6.828;2023-12-29T08:24:40;9.80;99.90
20839;DHT22;10580;51.092;6.828;2023-12-29T08:27:09;9.70;99.90
20839;DHT22;10580;51.092;6.828;2023-12-29T08:29:34;9.60;1.00
20839;DHT22;10580;51.092;6.828;2023-12-29T08:32:00;9.60;1.00
20839;DHT22;10580;51.092;6.828;2023-12-29T08:34:27;9.50;1.00
20839;DHT22;10580;51.092;6.828;2023-12-29T08:36:52;9.50;1.00
20839;DHT22;10580;51.092;6.828;2023-12-29T08:39:18;9.50;1.00
20839;DHT22;10580;51.092;6.828;2023-12-29T08:41:44;9.50;1.00
20839;DHT22;10580;51.092;6.828;2023-12-29T08:44:10;9.50;1.00
20839;DHT22;10580;51.092;6.828;2023-12-29T08:46:35;9.40;1.00
20839;DHT22;10580;51.092;6.828;2023-12-29T08:49:01;9.40;1.00
20839;DHT22;10580;51.092;6.828;2023-12-29T08:51:26;9.50;1.00
20839;DHT22;10580;51.092;6.828;2023-12-29T08:53:52;9.50;1.00
20839;DHT22;10580;51.092;6.828;2023-12-29T08:56:18;9.50;1.00
20839;DHT22;10580;51.092;6.828;2023-12-29T08:58:43;9.50;1.00
20839;DHT22;10580;51.092;6.828;2023-12-29T09:01:09;9.40;1.00
20839;DHT22;10580;51.092;6.828;2023-12-29T09:03:34;9.40;1.00
20839;DHT22;10580;51.092;6.828;2023-12-29T09:06:00;9.40;1.00
20839;DHT22;10580;51.092;6.828;2023-12-29T09:08:26;9.50;1.00
20839;DHT22;10580;51.092;6.828;2023-12-29T09:10:52;9.50;1.00
20839;DHT22;10580;51.092;6.828;2023-12-29T09:13:18;9.50;1.00
20839;DHT22;10580;51.092;6.828;2023-12-29T09:15:48;9.40;1.00
20839;DHT22;10580;51.092;6.828;2023-12-29T09:18:13;9.40;1.00
20839;DHT22;10580;51.092;6.828;2023-12-29T09:20:39;9.40;1.00
20839;DHT22;10580;51.092;6.828;2023-12-29T09:23:05;9.40;1.00
20839;DHT22;10580;51.092;6.828;2023-12-29T09:25:30;9.40;1.00
20839;DHT22;10580;51.092;6.828;2023-12-29T09:27:56;9.40;1.00
20839;DHT22;10580;51.092;6.828;2023-12-29T09:30:22;9.50;1.00
20839;DHT22;10580;51.092;6.828;2023-12-29T09:32:47;9.50;1.00
20839;DHT22;10580;51.092;6.828;2023-12-29T09:35:13;9.50;1.00
20839;DHT22;10580;51.092;6.828;2023-12-29T09:37:38;9.60;1.00
20839;DHT22;10580;51.092;6.828;2023-12-29T09:40:04;9.50;1.00
20839;DHT22;10580;51.092;6.828;2023-12-29T09:42:33;9.60;1.00
20839;DHT22;10580;51.092;6.828;2023-12-29T09:45:02;9.60;1.00
20839;DHT22;10580;51.092;6.828;2023-12-29T09:47:30;9.60;1.00
20839;DHT22;10580;51.092;6.828;2023-12-29T09:49:57;9.70;1.00
20839;DHT22;10580;51.092;6.828;2023-12-29T09:52:23;9.70;1.00
20839;DHT22;10580;51.092;6.828;2023-12-29T09:54:51;9.80;1.00
20839;DHT22;10580;51.092;6.828;2023-12-29T09:57:18;9.80;1.00
20839;DHT22;10580;51.092;6.828;2023-12-29T09:59:43;9.80;1.00
20839;DHT22;10580;51.092;6.828;2023-12-29T10:02:14;9.90;1.00
20839;DHT22;10580;51.092;6.828;2023-12-29T10:04:41;9.90;1.00
20839;DHT22;10580;51.092;6.828;2023-12-29T10:07:07;10.00;1.00
20839;DHT22;10580;51.092;6.828;2023-12-29T10:09:34;10.10;1.00
20839;DHT22;10580;51.092;6.828;2023-12-29T10:12:02;10.20;1.00
20839;DHT22;10580;51.092;6.828;2023-12-29T10:17:23;10.20;1.00
20839;DHT22;10580;51.092;6.828;2023-12-29T10:20:15;10.30;1.00
20839;DHT22;10580;51.092;6.828;2023-12-29T10:23:05;10.30;1.00
20839;DHT22;10580;51.092;6.828;2023-12-29T10:25:32;10.40;1.00
20839;DHT22;10580;51.092;6.828;2023-12-29T10:27:58;10.50;1.00
20839;DHT22;10580;51.092;6.828;2023-12-29T10:30:24;10.50;1.00
20839;DHT22;10580;51.092;6.828;2023-12-29T10:32:50;10.60;1.00
20839;DHT22;10580;51.092;6.828;2023-12-29T10:35:16;10.60;1.00
20839;DHT22;10580;51.092;6.828;2023-12-29T10:37:41;10.60;1.00
20839;DHT22;10580;51.092;6.828;2023-12-29T10:40:08;10.70;1.00
20839;DHT22;10580;51.092;6.828;2023-12-29T10:42:34;10.70;1.00
20839;DHT22;10580;51.092;6.828;2023-12-29T10:45:07;10.80;1.00
20839;DHT22;10580;51.092;6.828;2023-12-29T10:47:33;10.80;1.00
20839;DHT22;10580;51.092;6.828;2023-12-29T10:50:01;10.80;1.00
20839;DHT22;10580;51.092;6.828;2023-12-29T10:52:29;10.90;1.00
20839;DHT22;10580;51.092;6.828;2023-12-29T10:55:21;11.00;1.00
20839;DHT22;10580;51.092;6.828;2023-12-29T10:58:00;11.00;1.00
20839;DHT22;10580;51.092;6.828;2023-12-29T11:00:29;11.10;1.00
20839;DHT22;10580;51.092;6.828;2023-12-29T11:02:55;11.20;1.00
20839;DHT22;10580;51.092;6.828;2023-12-29T11:05:25;11.30;1.00
20839;DHT22;10580;51.092;6.828;2023-12-29T11:07:51;11.40;99.90
20839;DHT22;10580;51.092;6.828;2023-12-29T11:10:20;11.40;99.90
20839;DHT22;10580;51.092;6.828;2023-12-29T11:12:47;11.50;99.90
20839;DHT22;10580;51.092;6.828;2023-12-29T11:15:14;11.50;99.90
20839;DHT22;10580;51.092;6.828;2023-12-29T11:17:42;11.60;99.90
20839;DHT22;10580;51.092;6.828;2023-12-29T11:20:15;11.60;99.90
20839;DHT22;10580;51.092;6.828;2023-12-29T11:22:42;11.60;99.90
20839;DHT22;10580;51.092;6.828;2023-12-29T11:25:09;11.50;99.90
20839;DHT22;10580;51.092;6.828;2023-12-29T11:27:35;11.40;99.90
20839;DHT22;10580;51.092;6.828;2023-12-29T11:30:02;11.40;99.90
20839;DHT22;10580;51.092;6.828;2023-12-29T11:35:44;11.50;99.90
20839;DHT22;10580;51.092;6.828;2023-12-29T11:42:53;11.30;99.90
20839;DHT22;10580;51.092;6.828;2023-12-29T11:45:31;11.40;99.90
20839;DHT22;10580;51.092;6.828;2023-12-29T11:48:03;11.40;99.90
20839;DHT22;10580;51.092;6.828;2023-12-29T11:50:36;11.40;99.50
20839;DHT22;10580;51.092;6.828;2023-12-29T11:53:04;11.40;6.70
20839;DHT22;10580;51.092;6.828;2023-12-29T11:55:39;11.40;99.90
20839;DHT22;10580;51.092;6.828;2023-12-29T11:58:26;11.30;7.80
20839;DHT22;10580;51.092;6.828;2023-12-29T12:00:53;11.30;99.90
20839;DHT22;10580;51.092;6.828;2023-12-29T12:03:28;11.30;99.90
20839;DHT22;10580;51.092;6.828;2023-12-29T12:05:55;11.20;99.90
20839;DHT22;10580;51.092;6.828;2023-12-29T12:08:35;11.20;99.90
20839;DHT22;10580;51.092;6.828;2023-12-29T12:14:01;11.40;99.90
20839;DHT22;10580;51.092;6.828;2023-12-29T12:19:08;11.40;99.90
20839;DHT22;10580;51.092;6.828;2023-12-29T12:21:35;11.40;99.90
20839;DHT22;10580;51.092;6.828;2023-12-29T12:24:04;11.40;94.40
20839;DHT22;10580;51.092;6.828;2023-12-29T12:26:30;11.40;99.90
20839;DHT22;10580;51.092;6.828;2023-12-29T12:28:57;11.40;99.90
20839;DHT22;10580;51.092;6.828;2023-12-29T12:31:22;11.30;99.90
20839;DHT22;10580;51.092;6.828;2023-12-29T12:33:58;11.30;99.90
20839;DHT22;10580;51.092;6.828;2023-12-29T12:36:25;11.30;99.90
20839;DHT22;10580;51.092;6.828;2023-12-29T12:38:56;11.30;99.90
20839;DHT22;10580;51.092;6.828;2023-12-29T12:41:23;11.20;99.90
20839;DHT22;10580;51.092;6.828;2023-12-29T12:46:27;11.00;1.00
20839;DHT22;10580;51.092;6.828;2023-12-29T12:48:53;11.00;1.00
20839;DHT22;10580;51.092;6.828;2023-12-29T12:51:21;11.00;1.00
20839;DHT22;10580;51.092;6.828;2023-12-29T12:53:47;11.00;1.00
20839;DHT22;10580;51.092;6.828;2023-12-29T12:56:15;11.10;1.00
20839;DHT22;10580;51.092;6.828;2023-12-29T12:58:41;11.10;99.90
20839;DHT22;10580;51.092;6.828;2023-12-29T13:01:08;11.10;99.90
20839;DHT22;10580;51.092;6.828;2023-12-29T13:03:33;11.10;99.90
20839;DHT22;10580;51.092;6.828;2023-12-29T13:06:00;11.10;99.90
20839;DHT22;10580;51.092;6.828;2023-12-29T13:08:26;11.20;99.90
20839;DHT22;10580;51.092;6.828;2023-12-29T13:10:53;11.20;99.90
20839;DHT22;10580;51.092;6.828;2023-12-29T13:13:18;11.20;99.90
20839;DHT22;10580;51.092;6.828;2023-12-29T13:15:51;11.20;99.90
20839;DHT22;10580;51.092;6.828;2023-12-29T13:18:17;11.20;99.90
20839;DHT22;10580;51.092;6.828;2023-12-29T13:20:46;11.20;99.90
20839;DHT22;10580;51.092;6.828;2023-12-29T13:23:13;11.20;99.90
20839;DHT22;10580;51.092;6.828;2023-12-29T13:25:39;11.20;99.90
20839;DHT22;10580;51.092;6.828;2023-12-29T13:28:06;11.20;99.90
20839;DHT22;10580;51.092;6.828;2023-12-29T13:30:33;11.20;99.90
20839;DHT22;10580;51.092;6.828;2023-12-29T13:32:59;11.20;99.90
20839;DHT22;10580;51.092;6.828;2023-12-29T13:35:40;11.20;99.90
20839;DHT22;10580;51.092;6.828;2023-12-29T13:38:15;11.20;99.90
20839;DHT22;10580;51.092;6.828;2023-12-29T13:41:04;11.20;99.90
20839;DHT22;10580;51.092;6.828;2023-12-29T13:43:34;11.20;99.90
20839;DHT22;10580;51.092;6.828;2023-12-29T13:46:00;11.20;99.90
20839;DHT22;10580;51.092;6.828;2023-12-29T13:48:28;11.20;99.90
20839;DHT22;10580;51.092;6.828;2023-12-29T13:50:54;11.20;76.90
20839;DHT22;10580;51.092;6.828;2023-12-29T13:53:20;11.20;24.30
20839;DHT22;10580;51.092;6.828;2023-12-29T13:55:46;11.20;1.00
20839;DHT22;10580;51.092;6.828;2023-12-29T13:58:12;11.20;1.00
20839;DHT22;10580;51.092;6.828;2023-12-29T14:00:40;11.20;1.00
20839;DHT22;10580;51.092;6.828;2023-12-29T14:03:10;11.20;1.00
20839;DHT22;10580;51.092;6.828;2023-12-29T14:08:17;11.20;1.00
20839;DHT22;10580;51.092;6.828;2023-12-29T14:10:46;11.20;1.00
20839;DHT22;10580;51.092;6.828;2023-12-29T14:13:12;11.10;1.00
20839;DHT22;10580;51.092;6.828;2023-12-29T14:15:43;11.10;1.00
20839;DHT22;10580;51.092;6.828;2023-12-29T14:20:38;11.00;1.00
20839;DHT22;10580;51.092;6.828;2023-12-29T14:23:04;11.00;1.00
20839;DHT22;10580;51.092;6.828;2023-12-29T14:25:34;10.90;1.00
20839;DHT22;10580;51.092;6.828;2023-12-29T14:28:18;10.90;99.90
20839;DHT22;10580;51.092;6.828;2023-12-29T14:30:44;10.70;99.90
20839;DHT22;10580;51.092;6.828;2023-12-29T14:33:10;10.60;99.90
20839;DHT22;10580;51.092;6.828;2023-12-29T14:35:35;10.60;1.00
20839;DHT22;10580;51.092;6.828;2023-12-29T14:38:01;10.50;1.00
20839;DHT22;10580;51.092;6.828;2023-12-29T14:40:27;10.40;1.00
20839;DHT22;10580;51.092;6.828;2023-12-29T14:42:53;10.40;1.00
20839;DHT22;10580;51.092;6.828;2023-12-29T14:45:19;10.40;1.00
20839;DHT22;10580;51.092;6.828;2023-12-29T14:47:44;10.40;1.00
20839;DHT22;10580;51.092;6.828;2023-12-29T14:50:15;10.40;1.00
20839;DHT22;10580;51.092;6.828;2023-12-29T14:52:41;10.40;1.00
20839;DHT22;10580;51.092;6.828;2023-12-29T14:55:06;10.30;1.00
20839;DHT22;10580;51.092;6.828;2023-12-29T14:57:32;10.30;1.00
20839;DHT22;10580;51.092;6.828;2023-12-29T14:59:58;10.30;1.00
20839;DHT22;10580;51.092;6.828;2023-12-29T15:02:23;10.30;1.00
20839;DHT22;10580;51.092;6.828;2023-12-29T15:04:49;10.30;1.00
20839;DHT22;10580;51.092;6.828;2023-12-29T15:07:15;10.30;1.00
20839;DHT22;10580;51.092;6.828;2023-12-29T15:09:41;10.30;1.00
20839;DHT22;10580;51.092;6.828;2023-12-29T15:12:07;10.30;1.00
20839;DHT22;10580;51.092;6.828;2023-12-29T15:14:32;10.30;1.00
20839;DHT22;10580;51.092;6.828;2023-12-29T15:16:58;10.30;1.00
20839;DHT22;10580;51.092;6.828;2023-12-29T15:19:24;10.40;1.00
20839;DHT22;10580;51.092;6.828;2023-12-29T15:21:49;10.40;1.00
20839;DHT22;10580;51.092;6.828;2023-12-29T15:24:21;10.40;1.00
20839;DHT22;10580;51.092;6.828;2023-12-29T15:26:48;10.40;1.00
20839;DHT22;10580;51.092;6.828;2023-12-29T15:29:13;10.50;1.00
20839;DHT22;10580;51.092;6.828;2023-12-29T15:31:42;10.50;1.00
20839;DHT22;10580;51.092;6.828;2023-12-29T15:34:09;10.50;1.00
20839;DHT22;10580;51.092;6.828;2023-12-29T15:36:35;10.50;1.00
20839;DHT22;10580;51.092;6.828;2023-12-29T15:39:00;10.50;1.00
20839;DHT22;10580;51.092;6.828;2023-12-29T15:41:26;10.50;1.00
20839;DHT22;10580;51.092;6.828;2023-12-29T15:43:52;10.50;1.00
20839;DHT22;10580;51.092;6.828;2023-12-29T15:46:18;10.40;1.00
20839;DHT22;10580;51.092;6.828;2023-12-29T15:48:47;10.30;1.00
20839;DHT22;10580;51.092;6.828;2023-12-29T15:51:13;10.20;1.00
20839;DHT22;10580;51.092;6.828;2023-12-29T15:53:39;10.20;1.00
20839;DHT22;10580;51.092;6.828;2023-12-29T15:56:06;10.20;1.00
20839;DHT22;10580;51.092;6.828;2023-12-29T15:58:32;10.10;1.00
20839;DHT22;10580;51.092;6.828;2023-12-29T16:00:57;10.10;1.00
20839;DHT22;10580;51.092;6.828;2023-12-29T16:03:23;10.10;1.00